Time;durP1;ratioP1;P1;durP2;ratioP2;P2;SDS_P1;SDS_P2;PMS_P1;PMS_P2;Temp;Humidity;BMP_temperature;BMP_pressure;BME280_temperature;BME280_humidity;BME280_pressure;Samples;Min_cycle;Max_cycle;Signal;HPM_P1;HPM_P2
2022/07/04 00:01:27;;;;;;;7.67;1.53;;;;;;;20.77;55.89;99980.69;12188436;19;20006;-82
2022/07/04 00:05:28;;;;;;;2.47;1.42;;;;;;;20.76;55.46;99975.41;12199136;19;20003;-82
2022/07/04 00:09:30;;;;;;;2.50;1.53;;;;;;;20.76;55.06;99979.03;12202529;19;20007;-82
2022/07/04 00:13:32;;;;;;;4.65;1.67;;;;;;;20.71;55.96;99979.97;12182635;19;20434;-83
2022/07/04 00:17:33;;;;;;;3.20;1.50;;;;;;;20.68;56.50;99977.81;12208768;19;20007;-82
2022/07/04 00:21:35;;;;;;;2.22;1.33;;;;;;;20.62;56.99;99973.47;12208869;19;20602;-82
2022/07/04 00:25:38;;;;;;;7.63;3.17;;;;;;;20.55;57.08;99961.03;12191632;19;20015;-82
2022/07/04 00:29:39;;;;;;;4.63;1.92;;;;;;;20.48;57.34;99961.41;12210746;19;20010;-82
2022/07/04 00:33:41;;;;;;;6.38;1.70;;;;;;;20.43;57.59;99956.75;12186904;19;20050;-82
2022/07/04 00:37:43;;;;;;;2.53;1.45;;;;;;;20.41;57.71;99961.03;12216524;19;20446;-82
2022/07/04 00:41:44;;;;;;;3.08;1.38;;;;;;;20.33;57.39;99962.56;12212495;19;20011;-81
2022/07/04 00:45:46;;;;;;;1.77;1.10;;;;;;;20.25;57.61;99954.88;12191438;19;20013;-82
2022/07/04 00:49:48;;;;;;;3.38;1.42;;;;;;;20.17;57.98;99964.84;12218154;19;20016;-82
2022/07/04 00:53:52;;;;;;;3.08;1.30;;;;;;;20.04;58.19;99966.47;12209431;19;20011;-82
2022/07/04 00:57:53;;;;;;;2.05;1.40;;;;;;;19.89;58.33;99974.34;12196042;19;20020;-82
2022/07/04 01:01:55;;;;;;;5.57;1.80;;;;;;;19.77;59.06;99972.03;12212555;19;20408;-82
2022/07/04 01:05:59;;;;;;;5.70;1.50;;;;;;;19.66;59.34;99974.19;12213141;19;20015;-82
2022/07/04 01:10:03;;;;;;;2.75;1.52;;;;;;;19.55;60.11;99997.84;12179508;19;20015;-82
2022/07/04 01:14:07;;;;;;;9.23;1.83;;;;;;;19.42;60.17;99993.84;12213816;19;20010;-82
2022/07/04 01:18:09;;;;;;;4.15;1.40;;;;;;;19.29;60.47;100001.03;12212475;19;20024;-82
2022/07/04 01:22:12;;;;;;;2.22;1.30;;;;;;;19.19;60.82;100008.75;12191364;19;20021;-81
2022/07/04 01:26:13;;;;;;;;;;;;;;;19.05;60.79;100009.50;12221046;19;20417;-82
2022/07/04 01:30:16;;;;;;;2.05;1.10;;;;;;;18.94;60.76;100018.31;12206363;19;19907;-82
2022/07/04 01:34:17;;;;;;;4.40;1.50;;;;;;;18.78;61.19;100017.69;12184529;19;20082;-82
2022/07/04 01:38:19;;;;;;;3.05;1.38;;;;;;;18.59;62.32;100010.09;12206814;19;20113;-82
2022/07/04 01:42:21;;;;;;;3.13;1.55;;;;;;;18.47;62.56;100015.25;12208839;19;20392;-82
2022/07/04 01:46:23;;;;;;;4.28;1.90;;;;;;;18.39;62.92;100022.34;12188072;19;20010;-82
2022/07/04 01:50:25;;;;;;;4.72;1.83;;;;;;;18.28;63.30;100029.16;12207531;19;20006;-82
2022/07/04 01:54:27;;;;;;;2.83;1.35;;;;;;;18.17;63.81;100035.94;12214115;19;20006;-82
2022/07/04 01:58:29;;;;;;;9.20;1.67;;;;;;;18.09;64.47;100040.22;12184265;19;20082;-82
2022/07/04 02:02:31;;;;;;;4.28;1.75;;;;;;;18.02;64.89;100038.91;12196698;19;20405;-82
2022/07/04 02:06:33;;;;;;;3.65;1.90;;;;;;;17.93;65.30;100047.06;12206257;19;20031;-81
2022/07/04 02:10:35;;;;;;;3.67;1.67;;;;;;;17.84;65.20;100043.25;12198855;19;20078;-81
2022/07/04 02:14:36;;;;;;;4.90;1.85;;;;;;;17.74;65.92;100042.19;12203352;19;20007;-81
2022/07/04 02:18:39;;;;;;;4.78;1.70;;;;;;;17.65;65.88;100041.16;12207833;19;20467;-81
2022/07/04 02:22:40;;;;;;;5.35;1.70;;;;;;;17.54;66.93;100043.19;12218004;19;20019;-82
2022/07/04 02:26:42;;;;;;;3.65;1.65;;;;;;;17.40;66.80;100044.13;12218021;19;20022;-83
2022/07/04 02:30:44;;;;;;;2.70;1.90;;;;;;;17.29;67.83;100048.94;12188763;19;20101;-82
2022/07/04 02:34:52;;;;;;;4.10;1.63;;;;;;;17.21;68.27;100041.19;12206616;19;20007;-82
2022/07/04 02:38:54;;;;;;;4.22;1.85;;;;;;;17.12;68.22;100040.97;12217395;19;20023;-82
2022/07/04 02:42:56;;;;;;;6.40;1.80;;;;;;;17.03;69.10;100040.75;12198533;19;20018;-82
2022/07/04 02:46:57;;;;;;;4.15;1.92;;;;;;;16.94;69.58;100042.47;12212021;19;20010;-82
2022/07/04 02:50:59;;;;;;;3.95;1.90;;;;;;;16.87;70.06;100052.25;12203263;19;20020;-82
2022/07/04 02:55:01;;;;;;;3.28;1.67;;;;;;;16.81;70.54;100049.50;12192053;19;20051;-81
2022/07/04 02:59:03;;;;;;;2.95;1.58;;;;;;;16.75;70.41;100056.16;12218772;19;20431;-83
2022/07/04 03:03:04;;;;;;;4.25;1.90;;;;;;;16.72;70.72;100062.31;12212692;19;20074;-82
2022/07/04 03:07:07;;;;;;;5.80;1.95;;;;;;;16.68;71.28;100054.81;12188406;19;20093;-82
2022/07/04 03:11:09;;;;;;;4.10;2.22;;;;;;;16.62;71.53;100063.16;12213373;19;20018;-82
2022/07/04 03:15:11;;;;;;;4.32;2.08;;;;;;;16.58;71.87;100066.81;12216882;19;20051;-81
2022/07/04 03:19:13;;;;;;;3.42;1.92;;;;;;;16.54;72.33;100063.75;12196635;19;20094;-82
2022/07/04 03:23:15;;;;;;;6.00;1.90;;;;;;;16.50;72.81;100073.78;12226019;19;20002;-82
2022/07/04 03:27:16;;;;;;;3.17;1.80;;;;;;;16.45;72.80;100075.72;12223372;19;20031;-81
2022/07/04 03:31:19;;;;;;;4.80;2.05;;;;;;;16.41;73.30;100081.84;12198148;19;20256;-82
2022/07/04 03:35:21;;;;;;;4.37;1.97;;;;;;;16.35;73.46;100084.94;12223189;19;20067;-82
2022/07/04 03:39:23;;;;;;;4.20;2.33;;;;;;;16.29;74.04;100092.47;12207438;19;20031;-82
2022/07/04 03:43:25;;;;;;;;;;;;;;;16.26;75.33;100104.16;12192665;19;20011;-81
2022/07/04 03:47:27;;;;;;;7.25;1.88;;;;;;;16.25;74.36;100102.50;12221521;19;19951;-81
2022/07/04 03:51:29;;;;;;;3.95;2.13;;;;;;;16.22;74.75;100105.84;12220725;19;20356;-82
2022/07/04 03:55:30;;;;;;;4.07;2.40;;;;;;;16.20;74.97;100110.00;12191269;19;20381;-82
2022/07/04 03:59:32;;;;;;;4.05;1.80;;;;;;;16.18;76.00;100110.25;12208097;19;20106;-82
2022/07/04 04:07:59;;;;;;;4.13;1.77;;;;;;;16.17;76.87;100114.16;12195458;19;20495;-81
2022/07/04 04:12:01;;;;;;;2.38;1.83;;;;;;;16.16;77.23;100113.34;12214475;19;20076;-81
2022/07/04 04:16:03;;;;;;;4.35;2.20;;;;;;;16.15;77.98;100119.16;12184142;19;20074;-82
2022/07/04 04:20:05;;;;;;;4.47;2.03;;;;;;;16.14;78.14;100120.28;12211510;19;20021;-82
2022/07/04 04:24:07;;;;;;;4.80;2.08;;;;;;;16.15;78.07;100113.59;12204872;19;20082;-82
2022/07/04 04:28:09;;;;;;;5.43;2.25;;;;;;;16.15;78.06;100114.47;12180912;19;20045;-82
2022/07/04 04:32:11;;;;;;;3.58;2.00;;;;;;;16.18;78.64;100124.16;12203826;19;20589;-83
2022/07/04 04:36:12;;;;;;;7.28;2.50;;;;;;;16.17;78.74;100123.34;12202989;19;20075;-81
2022/07/04 04:40:14;;;;;;;4.82;2.40;;;;;;;16.18;79.53;100125.03;12189219;19;20035;-83
2022/07/04 04:44:16;;;;;;;4.72;2.50;;;;;;;16.21;79.38;100129.19;12209103;19;20010;-81
2022/07/04 04:48:18;;;;;;;3.70;1.95;;;;;;;16.24;79.57;100131.41;12206840;19;20034;-81
2022/07/04 04:52:20;;;;;;;3.67;1.98;;;;;;;16.26;79.77;100140.28;12189292;19;20018;-81
2022/07/04 04:56:23;;;;;;;3.40;2.13;;;;;;;16.31;79.73;100140.28;12208138;19;20440;-82
2022/07/04 05:00:25;;;;;;;5.13;2.30;;;;;;;16.36;80.06;100143.06;12200523;19;20024;-80
2022/07/04 05:04:27;;;;;;;5.30;2.67;;;;;;;16.41;80.18;100134.72;12179841;19;20651;-80
2022/07/04 05:08:29;;;;;;;3.03;2.27;;;;;;;16.47;81.08;100137.50;12201662;19;20326;-80
2022/07/04 05:12:30;;;;;;;5.22;2.70;;;;;;;16.52;81.44;100148.63;12208988;19;20006;-80
2022/07/04 05:16:38;;;;;;;4.38;2.30;;;;;;;16.61;81.19;100150.53;12189072;19;20763;-80
2022/07/04 05:20:40;;;;;;;4.43;2.97;;;;;;;16.68;81.29;100154.97;12214063;19;20006;-81
2022/07/04 05:24:41;;;;;;;4.05;2.38;;;;;;;16.77;80.69;100165.25;12209243;19;20013;-83
2022/07/04 05:28:43;;;;;;;3.63;2.28;;;;;;;16.85;80.59;100167.47;12188880;19;20030;-80
2022/07/04 05:32:45;;;;;;;5.63;2.50;;;;;;;16.94;80.80;100170.50;12208243;19;20014;-80
2022/07/04 05:36:47;;;;;;;5.35;2.38;;;;;;;17.03;80.45;100176.31;12183924;19;20007;-82
2022/07/04 05:40:48;;;;;;;4.53;2.67;;;;;;;17.11;80.61;100178.53;12219760;19;20321;-82
2022/07/04 05:44:50;;;;;;;5.85;2.05;;;;;;;17.21;80.11;100180.44;12218533;19;20007;-82
2022/07/04 05:48:52;;;;;;;4.45;2.55;;;;;;;17.35;79.96;100181.50;12194462;19;20070;-82
2022/07/04 05:52:53;;;;;;;6.20;2.58;;;;;;;17.47;79.78;100189.50;12211337;19;20380;-82
2022/07/04 05:56:55;;;;;;;4.38;2.47;;;;;;;17.60;79.85;100186.09;12216806;19;20832;-82
2022/07/04 06:00:57;;;;;;;5.28;2.67;;;;;;;17.73;79.26;100193.81;12189879;19;20034;-82
2022/07/04 06:04:58;;;;;;;4.53;2.58;;;;;;;17.83;78.64;100194.91;12212707;19;20020;-82
2022/07/04 06:09:01;;;;;;;9.77;2.58;;;;;;;17.98;75.75;100187.25;12213852;19;20025;-81
2022/07/04 06:13:03;;;;;;;5.32;2.40;;;;;;;18.21;74.72;100194.06;12185793;19;20023;-82
2022/07/04 06:17:10;;;;;;;5.35;2.35;;;;;;;18.45;72.22;100190.53;12213240;19;20002;-82
2022/07/04 06:21:11;;;;;;;3.47;1.98;;;;;;;18.74;70.24;100192.47;12209145;19;20003;-82
2022/07/04 06:25:18;;;;;;;4.65;2.10;;;;;;;18.96;69.21;100192.81;12182275;19;20060;-82
2022/07/04 06:29:19;;;;;;;4.20;1.98;;;;;;;19.14;67.38;100196.78;12209169;19;20669;-82
2022/07/04 06:33:21;;;;;;;4.65;2.05;;;;;;;19.31;66.79;100205.53;12215446;19;20109;-82
2022/07/04 06:37:24;;;;;;;3.55;2.10;;;;;;;19.48;65.58;100198.59;12191178;19;20058;-80
2022/07/04 06:41:25;;;;;;;3.92;1.95;;;;;;;19.59;64.29;100202.94;12194830;19;20035;-82
2022/07/04 06:45:27;;;;;;;6.28;2.15;;;;;;;19.75;63.62;100193.25;12186690;19;21250;-80
2022/07/04 06:49:29;;;;;;;3.08;1.60;;;;;;;19.92;63.18;100191.84;12165619;19;20010;-82
2022/07/04 06:53:30;;;;;;;4.70;1.90;;;;;;;20.13;62.04;100178.38;12205580;19;20011;-81
2022/07/04 06:57:32;;;;;;;3.83;1.60;;;;;;;20.24;61.05;100177.91;12206186;19;20021;-81
2022/07/04 07:01:34;;;;;;;3.83;2.00;;;;;;;20.36;60.45;100180.22;12179847;19;20085;-82
2022/07/04 07:05:38;;;;;;;3.80;1.80;;;;;;;20.50;60.39;100174.69;12195905;19;20016;-81
2022/07/04 07:10:02;;;;;;;4.22;1.65;;;;;;;20.70;59.52;100165.94;12181868;19;20023;-81
2022/07/04 07:14:04;;;;;;;3.72;1.67;;;;;;;20.89;58.25;100160.25;12193821;19;20086;-82
2022/07/04 07:18:06;;;;;;;4.25;1.35;;;;;;;21.09;57.57;100163.75;12210322;19;20010;-82
2022/07/04 07:22:10;;;;;;;8.53;1.37;;;;;;;21.31;56.47;100163.88;12180102;19;20030;-82
2022/07/04 07:26:12;;;;;;;6.20;1.90;;;;;;;21.45;55.52;100168.69;12214631;19;20010;-83
2022/07/04 07:30:14;;;;;;;4.53;1.60;;;;;;;21.54;54.68;100158.38;12229284;19;20006;-82
2022/07/04 07:34:16;;;;;;;2.75;1.40;;;;;;;21.73;52.71;100156.22;12187349;19;20544;-83
2022/07/04 07:38:18;;;;;;;3.67;1.40;;;;;;;22.01;52.78;100150.50;12205168;19;20454;-82
2022/07/04 07:42:20;;;;;;;2.10;1.37;;;;;;;22.24;52.88;100152.22;12193672;19;20006;-82
2022/07/04 07:46:21;;;;;;;5.18;1.40;;;;;;;22.34;50.87;100153.94;12176513;19;20003;-82
2022/07/04 07:50:23;;;;;;;6.60;1.40;;;;;;;22.50;50.98;100146.78;12198554;19;20010;-81
2022/07/04 07:54:25;;;;;;;3.72;1.50;;;;;;;22.80;49.71;100149.06;12203260;19;20045;-82
2022/07/04 07:58:47;;;;;;;2.58;1.48;;;;;;;23.01;48.93;100150.19;12182304;19;20468;-82
2022/07/04 08:07:14;;;;;;;6.60;1.50;;;;;;;23.11;47.70;100147.09;12184863;19;20015;-83
2022/07/04 08:11:24;;;;;;;2.70;1.60;;;;;;;23.24;47.52;100139.69;12203173;19;20018;-82
2022/07/04 08:15:27;;;;;;;;;;;;;;;23.35;46.66;100143.00;12196457;19;20046;-82
2022/07/04 08:19:28;;;;;;;3.35;1.27;;;;;;;23.39;46.89;100132.75;12171553;19;19911;-81
2022/07/04 08:23:32;;;;;;;2.97;1.30;;;;;;;23.60;46.68;100130.97;12200072;19;20075;-82
2022/07/04 08:27:33;;;;;;;4.32;1.50;;;;;;;23.86;46.08;100124.56;12197708;19;20382;-84
2022/07/04 08:31:36;;;;;;;3.33;1.23;;;;;;;24.04;46.00;100123.38;12172072;19;20018;-85
2022/07/04 08:35:54;;;;;;;5.30;1.60;;;;;;;24.20;45.04;100123.69;12198558;19;20014;-86
2022/07/04 08:40:12;;;;;;;6.70;1.50;;;;;;;24.31;44.59;100135.44;12196521;19;20010;-87
2022/07/04 08:44:22;;;;;;;2.05;1.35;;;;;;;24.34;44.54;100127.16;12195057;19;20010;-87
2022/07/04 08:48:27;;;;;;;3.75;1.30;;;;;;;24.53;44.15;100115.53;12212436;19;20010;-85
2022/07/04 09:02:51;;;;;;;3.40;1.65;;;;;;;24.98;42.75;100098.09;12209403;19;20029;-85
2022/07/04 09:06:53;;;;;;;4.93;1.57;;;;;;;25.14;42.69;100104.03;12187762;19;20014;-84
2022/07/04 09:10:55;;;;;;;8.70;1.60;;;;;;;25.28;41.64;100106.56;12208166;19;20366;-85
2022/07/04 09:15:01;;;;;;;2.80;1.17;;;;;;;25.20;41.32;100090.56;12237745;19;20032;-86
2022/07/04 09:19:03;;;;;;;2.45;1.20;;;;;;;25.44;41.15;100099.19;12186113;19;20017;-86
2022/07/04 09:23:18;;;;;;;6.00;1.70;;;;;;;25.56;40.82;100092.78;12210182;19;20015;-88
2022/07/04 09:27:54;;;;;;;5.45;1.35;;;;;;;25.56;40.78;100089.13;12207049;19;20014;-87
2022/07/04 09:31:56;;;;;;;4.75;1.70;;;;;;;25.84;40.89;100084.59;12182160;19;20018;-86
2022/07/04 09:36:13;;;;;;;5.93;1.63;;;;;;;26.35;39.74;100082.44;12197429;19;20006;-86
2022/07/04 09:40:32;;;;;;;3.33;1.50;;;;;;;26.45;39.57;100081.16;12186064;19;20007;-87
2022/07/04 09:44:50;;;;;;;3.25;1.45;;;;;;;25.99;38.73;100068.19;12211576;19;20086;-87
2022/07/04 09:53:27;;;;;;;2.22;1.20;;;;;;;26.02;39.05;100067.50;12210574;19;20015;-86
2022/07/04 09:57:30;;;;;;;1.40;0.85;;;;;;;26.05;38.62;100063.97;12218252;19;20013;-89
2022/07/04 10:01:35;;;;;;;2.22;1.20;;;;;;;26.10;37.87;100081.53;12185442;19;20022;-90
2022/07/04 10:05:37;;;;;;;2.60;1.30;;;;;;;26.37;37.67;100077.25;12169030;19;20070;-88
2022/07/04 10:09:39;;;;;;;8.50;1.30;;;;;;;26.75;37.26;100079.00;12209560;19;20014;-88
2022/07/04 10:13:42;;;;;;;4.05;1.30;;;;;;;26.96;35.84;100066.75;12184683;19;20351;-88
2022/07/04 10:17:44;;;;;;;3.25;1.13;;;;;;;27.10;36.34;100072.88;12207743;19;20014;-87
2022/07/04 10:21:47;;;;;;;3.00;1.17;;;;;;;27.29;36.39;100083.59;12217553;19;20074;-87
2022/07/04 10:25:50;;;;;;;1.98;1.00;;;;;;;27.23;35.59;100082.19;12195454;19;20022;-85
2022/07/04 10:30:11;;;;;;;2.85;1.05;;;;;;;27.02;35.85;100085.13;12215511;19;20006;-89
2022/07/04 10:34:30;;;;;;;2.88;1.27;;;;;;;26.97;35.32;100083.34;12183027;19;20375;-85
2022/07/04 10:38:58;;;;;;;2.58;0.88;;;;;;;27.15;35.10;100083.94;12208582;19;20014;-86
2022/07/04 10:43:56;;;;;;;2.67;1.10;;;;;;;27.34;34.73;100085.38;12173879;19;20014;-89
2022/07/04 10:48:29;;;;;;;4.25;1.15;;;;;;;27.31;33.69;100091.72;12190713;19;20016;-89
2022/07/04 10:53:15;;;;;;;4.18;1.27;;;;;;;27.28;34.19;100079.13;12206771;19;20023;-88
2022/07/04 10:57:33;;;;;;;8.25;0.90;;;;;;;27.46;33.86;100068.34;12244684;19;20043;-88
2022/07/04 11:06:33;;;;;;;4.28;1.30;;;;;;;27.39;34.07;100074.59;12219514;19;20021;-87
2022/07/04 11:11:15;;;;;;;;;;;;;;;;;;;;;
2022/07/04 11:15:35;;;;;;;3.70;1.27;;;;;;;27.62;33.57;100077.72;12222766;19;20025;-89
2022/07/04 11:20:00;;;;;;;4.90;1.48;;;;;;;27.94;33.99;100072.22;12218830;19;19998;-87
2022/07/04 11:24:16;;;;;;;3.42;1.00;;;;;;;28.50;33.08;100075.03;12205892;19;20074;-88
2022/07/04 11:28:28;;;;;;;3.00;1.00;;;;;;;28.56;32.17;100073.56;12184884;19;20467;-88
2022/07/04 11:32:51;;;;;;;3.55;1.20;;;;;;;28.12;32.71;100067.88;12237126;19;20054;-88
2022/07/04 11:36:53;;;;;;;3.53;1.00;;;;;;;27.54;33.63;100061.72;12190777;19;20006;-83
2022/07/04 11:45:44;;;;;;;2.33;1.20;;;;;;;28.47;32.16;100055.91;12211042;19;20017;-87
2022/07/04 11:49:56;;;;;;;3.65;1.25;;;;;;;28.96;32.16;100043.34;12190099;19;20018;-87
2022/07/04 11:54:13;;;;;;;5.18;1.02;;;;;;;29.33;31.40;100055.22;12212482;19;20014;-88
2022/07/04 11:58:42;;;;;;;1.38;0.80;;;;;;;29.52;30.74;100052.38;12197686;19;20011;-89
2022/07/04 12:02:51;;;;;;;1.77;1.23;;;;;;;29.46;30.02;100050.22;12176209;19;20059;-88
2022/07/04 12:07:08;;;;;;;3.05;0.88;;;;;;;29.42;29.11;100035.09;12223395;19;20114;-87
2022/07/04 12:11:13;;;;;;;1.83;0.90;;;;;;;29.23;29.68;100031.03;12209196;19;20013;-88
2022/07/04 12:15:18;;;;;;;2.80;1.05;;;;;;;29.47;30.11;100041.31;12209992;19;20071;-88
2022/07/04 12:24:09;;;;;;;7.40;1.10;;;;;;;30.70;28.49;100025.47;12245181;19;20030;-87
2022/07/04 12:28:14;;;;;;;4.18;1.35;;;;;;;31.57;28.28;100022.75;12223991;19;20007;-88
2022/07/04 12:32:17;;;;;;;1.95;0.98;;;;;;;31.83;27.78;100023.84;12222439;19;20317;-85
2022/07/04 12:36:19;;;;;;;2.75;1.20;;;;;;;33.16;26.26;100012.50;12220987;19;20010;-85
2022/07/04 12:40:21;;;;;;;1.23;0.90;;;;;;;34.05;24.73;100008.47;12194923;19;20011;-85
2022/07/04 12:44:23;;;;;;;4.55;1.27;;;;;;;33.93;24.64;100001.88;12233766;19;20010;-85
2022/07/04 12:48:27;;;;;;;1.25;1.00;;;;;;;33.94;24.34;99997.78;12235264;19;20017;-88
2022/07/04 12:52:51;;;;;;;3.30;1.08;;;;;;;34.77;23.50;99995.03;12199969;19;20006;-86
2022/07/04 13:01:49;;;;;;;4.28;1.10;;;;;;;35.89;22.48;99988.59;12196368;19;20514;-89
2022/07/04 13:06:15;;;;;;;2.67;0.77;;;;;;;35.93;21.30;100000.84;12218007;19;20011;-85
2022/07/04 13:15:11;;;;;;;3.03;1.00;;;;;;;34.73;22.23;99982.78;12212836;19;20017;-87
2022/07/04 13:19:13;;;;;;;2.40;0.70;;;;;;;34.78;22.69;99983.19;12185568;19;20373;-86
2022/07/04 13:28:32;;;;;;;2.72;0.90;;;;;;;37.41;19.17;99966.81;12204253;19;20090;-89
2022/07/04 13:32:36;;;;;;;3.90;0.70;;;;;;;37.45;18.54;99969.63;12210321;19;20094;-86
2022/07/04 13:36:55;;;;;;;1.58;0.60;;;;;;;38.45;17.32;99971.94;12217182;19;20516;-87
2022/07/04 14:11:24;;;;;;;0.90;0.68;;;;;;;40.86;14.46;99930.91;12224046;19;20033;-87
2022/07/04 14:20:33;;;;;;;1.25;0.70;;;;;;;41.35;14.20;99915.47;12211983;19;20013;-84
2022/07/04 14:24:42;;;;;;;2.10;0.50;;;;;;;39.18;14.95;99927.00;12231041;19;20027;-87
2022/07/04 14:29:17;;;;;;;0.88;0.60;;;;;;;37.07;16.84;99915.91;12191529;19;20385;-87
2022/07/04 14:33:49;;;;;;;2.45;0.80;;;;;;;34.99;18.46;99915.69;12238641;19;20031;-90
2022/07/04 14:37:57;;;;;;;;;;;;;;;34.72;19.54;99912.50;12217151;19;20042;-87
2022/07/04 14:42:08;;;;;;;3.80;0.80;;;;;;;34.96;18.87;99899.34;12196211;19;20401;-88
2022/07/04 14:46:49;;;;;;;2.17;0.60;;;;;;;35.61;18.34;99897.88;12211882;19;20006;-88
2022/07/04 14:50:51;;;;;;;3.92;1.00;;;;;;;35.68;18.61;99882.66;12214770;19;20033;-87
2022/07/04 14:55:58;;;;;;;;;;;;;;;;;;;;;
2022/07/04 15:00:28;;;;;;;1.77;0.77;;;;;;;39.92;15.40;99878.84;12102640;19;2004661;-88
2022/07/04 15:33:14;;;;;;;2.25;0.75;;;;;;;35.66;17.37;99854.41;12235096;19;20535;-81
2022/07/04 15:37:58;;;;;;;1.48;0.88;;;;;;;33.98;18.97;99852.81;12217016;19;20035;-85
2022/07/04 15:47:07;;;;;;;2.42;0.70;;;;;;;31.43;21.15;99861.06;12229636;19;19998;-86
2022/07/04 15:56:33;;;;;;;1.95;0.70;;;;;;;30.13;22.60;99863.28;12225797;19;19993;-85
2022/07/04 16:05:56;;;;;;;1.45;0.65;;;;;;;29.26;23.30;99847.84;12196583;19;20119;-84
2022/07/04 16:15:01;;;;;;;1.80;0.60;;;;;;;29.04;23.76;99858.78;12224055;19;20352;-82
2022/07/04 16:19:54;;;;;;;1.58;0.68;;;;;;;28.98;23.51;99846.06;12226135;19;20419;-85
2022/07/04 16:24:24;;;;;;;4.13;0.60;;;;;;;28.67;24.19;99841.31;12206823;19;20009;-83
2022/07/04 16:37:47;;;;;;;2.58;1.10;;;;;;;28.36;24.40;99828.06;12210829;19;20091;-87
2022/07/04 16:41:50;;;;;;;3.20;0.77;;;;;;;28.12;24.37;99834.78;12201397;19;20007;-86
2022/07/04 16:45:55;;;;;;;3.15;0.63;;;;;;;27.95;25.01;99830.31;12201093;19;20024;-85
2022/07/04 16:49:57;;;;;;;2.13;0.70;;;;;;;27.76;24.77;99831.03;12182981;19;20010;-85
2022/07/04 16:53:59;;;;;;;1.48;0.68;;;;;;;27.61;24.73;99831.84;12198610;19;20480;-84
2022/07/04 16:58:02;;;;;;;1.50;0.80;;;;;;;27.48;24.97;99828.25;12207455;19;20010;-83
2022/07/04 17:02:03;;;;;;;;;;;;;;;27.38;25.62;99837.28;12194865;19;20006;-86
2022/07/04 17:06:05;;;;;;;4.80;0.60;;;;;;;27.41;25.33;99840.22;12197438;19;21277;-83
2022/07/04 17:10:08;;;;;;;3.10;0.70;;;;;;;27.44;25.42;99828.16;12172606;19;20156;-84
2022/07/04 17:14:09;;;;;;;2.10;0.85;;;;;;;27.34;26.37;99828.72;12211209;19;20452;-86
2022/07/04 17:18:11;;;;;;;2.60;0.77;;;;;;;27.31;26.57;99834.25;12216607;19;20010;-84
2022/07/04 17:22:13;;;;;;;3.28;0.70;;;;;;;27.27;26.40;99834.16;12186204;19;20009;-84
2022/07/04 17:26:15;;;;;;;3.33;0.70;;;;;;;27.30;27.01;99844.75;12211870;19;20421;-85
2022/07/04 17:30:17;;;;;;;4.00;0.77;;;;;;;27.44;26.71;99845.16;12201293;19;20018;-85
2022/07/04 17:34:18;;;;;;;3.43;0.77;;;;;;;27.30;26.82;99849.59;12183798;19;20003;-84
2022/07/04 17:38:20;;;;;;;1.90;0.70;;;;;;;27.61;26.45;99837.50;12202382;19;20540;-83
2022/07/04 17:42:22;;;;;;;2.05;0.82;;;;;;;27.72;26.58;99850.75;12207985;19;20010;-83
2022/07/04 17:46:23;;;;;;;0.63;0.60;;;;;;;27.46;26.67;99858.94;12186826;19;20033;-83
2022/07/04 17:50:26;;;;;;;5.00;0.60;;;;;;;27.26;27.17;99863.63;12203814;19;20014;-84
2022/07/04 17:54:28;;;;;;;3.13;0.82;;;;;;;27.10;27.53;99859.91;12212835;19;20011;-84
2022/07/04 17:58:49;;;;;;;2.42;1.10;;;;;;;26.93;27.71;99856.19;12185169;19;20010;-84
2022/07/04 18:02:52;;;;;;;2.30;0.90;;;;;;;26.74;28.39;99856.88;12208928;19;20006;-85
2022/07/04 18:06:54;;;;;;;2.10;0.90;;;;;;;26.62;28.77;99862.53;12218530;19;20019;-82
2022/07/04 18:10:56;;;;;;;;;;;;;;;26.49;28.42;99866.53;12207162;19;20006;-80
2022/07/04 18:14:58;;;;;;;0.85;0.60;;;;;;;26.34;29.13;99860.41;12237844;19;19915;-85
2022/07/04 18:19:00;;;;;;;3.45;0.82;;;;;;;26.28;29.14;99866.69;12212607;19;20011;-84
2022/07/04 18:23:02;;;;;;;2.70;0.80;;;;;;;26.28;29.21;99869.50;12189474;19;20018;-84
2022/07/04 18:27:05;;;;;;;3.27;0.80;;;;;;;26.19;29.47;99875.25;12219354;19;20027;-83
2022/07/04 18:31:09;;;;;;;2.60;1.00;;;;;;;26.06;29.74;99882.91;12189022;19;20010;-83
2022/07/04 18:35:12;;;;;;;2.92;0.80;;;;;;;26.07;29.55;99878.91;12210246;19;20041;-85
2022/07/04 18:39:13;;;;;;;3.00;0.70;;;;;;;25.87;29.80;99885.47;12225237;19;20402;-84
2022/07/04 18:43:24;;;;;;;1.43;0.80;;;;;;;25.70;29.80;99880.84;12189339;19;20010;-84
2022/07/04 18:47:26;;;;;;;3.58;0.90;;;;;;;25.57;30.30;99898.91;12213507;19;20014;-86
2022/07/04 18:51:32;;;;;;;2.92;0.88;;;;;;;25.40;30.60;99889.47;12217927;19;20014;-83
2022/07/04 18:55:34;;;;;;;1.80;0.93;;;;;;;25.30;30.11;99895.53;12193430;19;20017;-82
2022/07/04 18:59:36;;;;;;;1.73;0.80;;;;;;;25.20;30.27;99902.44;12225673;19;20011;-83
2022/07/04 19:03:37;;;;;;;1.10;0.87;;;;;;;25.05;30.58;99896.59;12204503;19;20003;-83
2022/07/04 19:07:39;;;;;;;2.70;1.00;;;;;;;24.83;31.77;99907.03;12175316;19;20490;-85
2022/07/04 19:11:40;;;;;;;1.70;0.80;;;;;;;24.56;32.32;99906.38;12205045;19;20086;-84
2022/07/04 19:15:42;;;;;;;2.75;1.27;;;;;;;24.29;32.49;99921.75;12203185;19;20491;-84
2022/07/04 19:19:45;;;;;;;7.70;0.93;;;;;;;24.05;33.12;99922.34;12184742;19;20097;-84
2022/07/04 19:23:47;;;;;;;;;;;;;;;23.84;33.60;99930.72;12203134;19;20006;-82
2022/07/04 19:27:49;;;;;;;2.55;0.80;;;;;;;23.71;33.89;99936.53;12208589;19;19925;-83
2022/07/04 19:31:52;;;;;;;1.42;0.90;;;;;;;23.48;34.25;99931.09;12174371;19;20010;-82
2022/07/04 19:35:54;;;;;;;3.20;0.70;;;;;;;23.25;34.94;99943.69;12195179;19;20022;-84
2022/07/04 19:39:56;;;;;;;2.15;0.80;;;;;;;23.03;34.84;99951.16;12198380;19;20463;-84
2022/07/04 19:43:57;;;;;;;3.43;0.83;;;;;;;22.84;35.48;99965.47;12178052;19;20011;-82
2022/07/04 19:47:59;;;;;;;2.47;0.90;;;;;;;22.63;36.37;99965.25;12202165;19;20025;-85
2022/07/04 19:56:21;;;;;;;2.20;0.88;;;;;;;22.20;37.12;99965.97;12178835;19;20014;-84
2022/07/04 20:00:23;;;;;;;3.45;0.63;;;;;;;22.07;36.97;99958.41;12191765;19;20018;-84
2022/07/04 20:04:24;;;;;;;1.97;0.70;;;;;;;21.91;37.91;99971.22;12177807;19;20011;-82
2022/07/04 20:08:27;;;;;;;2.80;1.10;;;;;;;21.78;38.22;99982.22;12200361;19;20031;-83
2022/07/04 20:12:28;;;;;;;2.50;0.63;;;;;;;21.65;38.35;99979.47;12194260;19;20747;-83
2022/07/04 20:16:34;;;;;;;3.47;0.75;;;;;;;21.53;39.10;99977.25;12177131;19;20098;-85
2022/07/04 20:20:36;;;;;;;2.65;0.65;;;;;;;21.39;39.22;99982.94;12203445;19;20045;-84
2022/07/04 20:24:38;;;;;;;1.52;0.70;;;;;;;21.27;39.61;99980.66;12198674;19;20018;-82
2022/07/04 20:28:40;;;;;;;1.35;0.75;;;;;;;21.16;39.32;99982.06;12179808;19;20428;-81
2022/07/04 20:32:42;;;;;;;3.03;0.80;;;;;;;21.06;39.93;99979.47;12202286;19;20010;-80
2022/07/04 20:36:44;;;;;;;2.40;0.80;;;;;;;20.94;40.78;99983.69;12191154;19;20002;-80
2022/07/04 20:40:51;;;;;;;2.50;0.75;;;;;;;20.84;41.39;100000.69;12177465;19;20002;-81
2022/07/04 20:44:53;;;;;;;2.00;0.80;;;;;;;20.72;41.18;99989.22;12194287;19;20064;-80
2022/07/04 20:48:55;;;;;;;2.67;1.00;;;;;;;20.64;41.16;99992.72;12221324;19;20070;-79
2022/07/04 20:52:56;;;;;;;0.85;0.70;;;;;;;20.56;41.72;100001.88;12194216;19;20103;-82
2022/07/04 20:56:58;;;;;;;1.60;0.80;;;;;;;20.49;41.63;99994.72;12219604;19;20013;-81
2022/07/04 21:01:00;;;;;;;3.00;0.70;;;;;;;20.41;42.09;100003.00;12204575;19;20007;-82
2022/07/04 21:05:01;;;;;;;2.47;0.82;;;;;;;20.33;42.59;100004.53;12197592;19;20425;-82
2022/07/04 21:09:21;;;;;;;4.35;1.05;;;;;;;20.22;42.80;99998.31;12228132;19;20018;-82
2022/07/04 21:13:23;;;;;;;1.85;0.70;;;;;;;20.20;43.22;100013.75;12196188;19;20019;-83
2022/07/04 21:17:25;;;;;;;1.02;0.60;;;;;;;20.12;43.44;100009.69;12218888;19;20090;-82
2022/07/04 21:21:26;;;;;;;2.67;0.83;;;;;;;20.07;44.03;100011.75;12199035;19;20003;-82
2022/07/04 21:25:28;;;;;;;3.42;0.75;;;;;;;20.00;44.56;100014.97;12185855;19;20026;-82
2022/07/04 21:29:30;;;;;;;0.90;0.70;;;;;;;19.94;44.61;100022.63;12205345;19;20015;-82
2022/07/04 21:33:33;;;;;;;1.60;0.73;;;;;;;19.86;44.37;100023.31;12208028;19;20016;-84